Time;durP1;ratioP1;P1;durP2;ratioP2;P2;SDS_P1;SDS_P2;PMS_P1;PMS_P2;Temp;Humidity;BMP_temperature;BMP_pressure;BME280_temperature;BME280_humidity;BME280_pressure;Samples;Min_cycle;Max_cycle;Signal;HPM_P1;HPM_P2
2021/06/21 00:01:51;;;;;;;0.20;0.20;;;;;;;15.48;80.63;100307.16;5046709;28;20063;-87
2021/06/21 00:04:19;;;;;;;0.20;0.20;;;;;;;15.49;80.47;100322.44;5046695;28;20420;-86
2021/06/21 00:06:52;;;;;;;0.10;0.10;;;;;;;15.50;80.58;100315.06;5056964;28;20087;-86
2021/06/21 00:09:26;;;;;;;0.10;0.10;;;;;;;15.34;81.27;100309.22;5045586;28;20358;-87
2021/06/21 00:11:59;;;;;;;0.10;0.10;;;;;;;15.40;80.85;100316.97;5049084;28;20041;-87
2021/06/21 00:14:33;;;;;;;0.10;0.10;;;;;;;15.35;81.15;100317.13;5048064;28;20532;-87
2021/06/21 00:17:07;;;;;;;0.10;0.10;;;;;;;15.23;81.30;100315.03;5037759;28;20053;-85
2021/06/21 00:19:40;;;;;;;0.10;0.10;;;;;;;15.36;81.19;100329.72;5047630;28;20038;-87
2021/06/21 00:22:14;;;;;;;0.10;0.10;;;;;;;15.29;81.45;100321.16;5036480;28;20436;-85
2021/06/21 00:24:43;;;;;;;0.20;0.20;;;;;;;15.26;81.60;100328.09;5046916;28;20041;-87
2021/06/21 00:27:17;;;;;;;0.15;0.15;;;;;;;15.44;80.73;100331.66;5047058;28;20049;-86
2021/06/21 00:29:52;;;;;;;0.10;0.10;;;;;;;15.49;80.78;100322.44;5051751;28;20052;-87
2021/06/21 00:32:22;;;;;;;0.10;0.10;;;;;;;15.52;80.86;100316.31;5050100;28;20056;-86
2021/06/21 00:34:50;;;;;;;0.10;0.10;;;;;;;15.54;80.57;100316.81;5047398;28;20071;-86
2021/06/21 00:37:23;;;;;;;0.10;0.10;;;;;;;15.53;80.87;100308.91;5046281;28;20061;-87
2021/06/21 00:39:56;;;;;;;0.10;0.10;;;;;;;15.57;80.63;100296.16;5084851;28;20045;-88
2021/06/21 00:42:30;;;;;;;0.10;0.10;;;;;;;15.60;80.96;100298.25;5048846;28;20057;-86
2021/06/21 00:45:07;;;;;;;0.10;0.10;;;;;;;15.54;81.21;100300.38;5054265;28;20052;-85
2021/06/21 00:47:40;;;;;;;;;;;;;;;15.57;81.17;100298.91;5047670;28;20059;-87
2021/06/21 00:50:14;;;;;;;0.10;0.10;;;;;;;15.62;81.09;100285.84;5034811;28;20274;-86
2021/06/21 00:52:48;;;;;;;0.17;0.17;;;;;;;15.54;81.25;100292.13;5047512;28;20045;-86
2021/06/21 00:55:22;;;;;;;0.10;0.10;;;;;;;15.54;81.58;100286.66;5042995;28;20048;-87
2021/06/21 00:57:56;;;;;;;0.10;0.10;;;;;;;15.49;81.64;100284.06;5043882;28;20112;-87
2021/06/21 01:00:31;;;;;;;0.10;0.10;;;;;;;15.54;81.47;100275.69;5051908;28;20037;-86
2021/06/21 01:03:05;;;;;;;0.10;0.10;;;;;;;15.39;81.85;100265.19;5050326;28;20068;-84
2021/06/21 01:05:39;;;;;;;0.20;0.20;;;;;;;15.37;82.61;100262.78;5048985;28;20038;-86
2021/06/21 01:08:13;;;;;;;0.10;0.10;;;;;;;15.41;82.34;100258.28;5046065;28;20051;-87
2021/06/21 01:10:52;;;;;;;0.20;0.20;;;;;;;15.40;82.50;100262.13;5047441;28;20051;-86
2021/06/21 01:13:51;;;;;;;0.10;0.10;;;;;;;15.31;82.28;100264.06;5034385;28;20060;-87
2021/06/21 01:16:29;;;;;;;0.20;0.20;;;;;;;15.35;82.04;100256.00;5035516;28;20046;-86
2021/06/21 01:19:10;;;;;;;0.20;0.20;;;;;;;15.33;82.52;100250.84;5039439;28;20053;-87
2021/06/21 01:22:23;;;;;;;0.20;0.20;;;;;;;15.23;82.65;100234.72;5043887;28;20340;-87
2021/06/21 01:25:04;;;;;;;0.10;0.10;;;;;;;15.28;82.55;100240.84;5063188;28;20049;-87
2021/06/21 01:27:41;;;;;;;0.17;0.17;;;;;;;15.19;83.06;100236.47;5041826;28;20056;-86
2021/06/21 01:30:18;;;;;;;0.20;0.20;;;;;;;15.25;82.86;100238.75;5042862;28;20429;-88
2021/06/21 01:33:00;;;;;;;0.20;0.20;;;;;;;15.24;83.24;100248.09;5046800;28;20056;-86
2021/06/21 01:35:32;;;;;;;0.17;0.17;;;;;;;15.17;83.37;100245.03;5088385;28;20053;-86
2021/06/21 01:38:09;;;;;;;0.20;0.20;;;;;;;15.14;83.45;100234.72;5076195;28;20053;-86
2021/06/21 01:40:46;;;;;;;0.20;0.20;;;;;;;15.08;83.63;100219.53;5050310;28;20397;-85
2021/06/21 01:43:25;;;;;;;0.20;0.20;;;;;;;15.00;84.08;100215.69;5050970;28;20058;-86
2021/06/21 01:46:03;;;;;;;0.10;0.10;;;;;;;15.07;83.83;100212.47;5049077;28;20442;-87
2021/06/21 01:48:42;;;;;;;0.13;0.13;;;;;;;15.11;83.92;100194.25;5050279;28;20056;-86
2021/06/21 01:51:14;;;;;;;0.13;0.13;;;;;;;15.07;83.70;100188.59;5054337;28;20051;-85
2021/06/21 01:53:48;;;;;;;0.20;0.20;;;;;;;15.09;83.45;100186.34;5043328;28;20259;-88
2021/06/21 01:56:24;;;;;;;0.35;0.10;;;;;;;14.99;83.97;100167.47;5076622;28;20075;-86
2021/06/21 01:58:54;;;;;;;0.20;0.20;;;;;;;14.98;83.95;100178.75;5043738;28;20063;-87
2021/06/21 02:01:29;;;;;;;0.13;0.13;;;;;;;14.89;84.36;100170.56;5047805;28;20053;-86
2021/06/21 02:04:07;;;;;;;0.10;0.10;;;;;;;14.92;84.12;100159.75;5055669;28;20044;-88
2021/06/21 02:06:42;;;;;;;0.20;0.20;;;;;;;14.88;84.15;100174.41;5044351;28;20068;-87
2021/06/21 02:09:16;;;;;;;0.20;0.20;;;;;;;14.85;84.16;100172.31;5041251;28;20048;-87
2021/06/21 02:11:55;;;;;;;0.10;0.10;;;;;;;14.96;83.90;100187.31;5047561;28;20408;-86
2021/06/21 02:14:31;;;;;;;0.20;0.20;;;;;;;14.88;84.44;100207.28;5046450;28;20053;-86
2021/06/21 02:17:05;;;;;;;0.17;0.17;;;;;;;14.98;84.06;100223.41;5049070;28;20052;-85
2021/06/21 02:19:41;;;;;;;0.20;0.20;;;;;;;14.86;84.26;100231.44;5040655;28;20052;-85
2021/06/21 02:22:14;;;;;;;0.20;0.20;;;;;;;14.92;84.88;100241.94;5033504;28;20493;-86
2021/06/21 02:24:48;;;;;;;0.17;0.17;;;;;;;14.93;84.46;100254.50;5047098;28;20048;-86
2021/06/21 02:27:22;;;;;;;0.20;0.20;;;;;;;14.94;84.14;100267.09;5038731;28;20049;-87
2021/06/21 02:29:56;;;;;;;0.10;0.10;;;;;;;14.95;85.34;100279.66;5049626;28;20067;-88
2021/06/21 02:32:30;;;;;;;0.20;0.20;;;;;;;15.07;84.67;100289.19;5038448;28;20057;-87
2021/06/21 02:35:08;;;;;;;0.17;0.17;;;;;;;15.02;85.04;100278.38;5041949;28;20516;-89
2021/06/21 02:37:42;;;;;;;0.28;0.28;;;;;;;15.00;85.20;100273.22;5050728;28;20409;-89
2021/06/21 02:40:16;;;;;;;0.10;0.10;;;;;;;14.91;85.86;100266.91;5040056;28;20049;-88
2021/06/21 02:42:49;;;;;;;0.20;0.20;;;;;;;15.00;85.88;100255.97;5043039;28;20080;-88
2021/06/21 02:45:23;;;;;;;0.20;0.20;;;;;;;15.03;85.81;100247.13;5046798;28;20083;-89
2021/06/21 02:47:56;;;;;;;0.20;0.20;;;;;;;14.91;86.56;100237.56;5048866;28;20041;-89
2021/06/21 02:50:31;;;;;;;0.20;0.20;;;;;;;15.04;86.31;100240.50;5050278;28;20044;-90
2021/06/21 02:53:14;;;;;;;0.10;0.10;;;;;;;15.03;86.57;100239.69;5041306;28;20049;-88
2021/06/21 02:55:50;;;;;;;0.20;0.20;;;;;;;14.92;86.46;100236.44;5052299;28;20036;-88
2021/06/21 02:58:27;;;;;;;0.20;0.20;;;;;;;14.83;87.41;100238.41;5049417;28;20060;-88
2021/06/21 03:01:03;;;;;;;0.17;0.17;;;;;;;15.05;86.49;100248.41;5044241;28;20049;-87
2021/06/21 03:03:39;;;;;;;0.20;0.20;;;;;;;14.87;86.66;100242.06;5042850;28;20053;-87
2021/06/21 03:06:09;;;;;;;0.10;0.10;;;;;;;14.77;87.80;100239.66;5067722;28;20132;-89
2021/06/21 03:08:44;;;;;;;0.20;0.20;;;;;;;14.92;87.15;100243.88;5048578;28;20076;-84
2021/06/21 03:11:19;;;;;;;0.20;0.20;;;;;;;14.92;86.73;100233.72;5044247;28;20061;-87
2021/06/21 03:13:55;;;;;;;0.20;0.20;;;;;;;14.77;88.40;100226.75;5041599;28;20053;-88
2021/06/21 03:16:35;;;;;;;0.17;0.17;;;;;;;14.90;87.60;100226.94;5047754;28;20408;-87
2021/06/21 03:19:08;;;;;;;0.32;0.20;;;;;;;14.92;87.29;100220.00;5041748;28;20072;-89
2021/06/21 03:21:44;;;;;;;0.30;0.20;;;;;;;14.90;87.87;100219.53;5050641;28;20421;-88
2021/06/21 03:24:22;;;;;;;0.20;0.20;;;;;;;14.79;88.38;100210.81;5059970;28;20064;-88
2021/06/21 03:26:56;;;;;;;0.20;0.20;;;;;;;14.76;88.20;100196.94;5054260;28;20044;-89
2021/06/21 03:29:29;;;;;;;0.10;0.10;;;;;;;14.76;88.05;100196.94;5048632;28;20428;-86
2021/06/21 03:32:09;;;;;;;0.20;0.20;;;;;;;14.74;88.60;100185.53;5050133;28;20045;-88
2021/06/21 03:34:42;;;;;;;0.20;0.20;;;;;;;14.69;89.14;100171.97;5046061;28;20049;-89
2021/06/21 03:37:17;;;;;;;0.10;0.10;;;;;;;14.61;89.49;100171.59;5050384;28;20045;-87
2021/06/21 03:39:50;;;;;;;0.20;0.20;;;;;;;14.67;89.11;100191.47;5042611;28;20044;-88
2021/06/21 03:42:24;;;;;;;0.10;0.10;;;;;;;14.72;89.17;100201.44;5053127;28;20055;-88
2021/06/21 03:44:59;;;;;;;0.10;0.10;;;;;;;14.67;89.51;100207.09;5054545;28;20041;-88
2021/06/21 03:47:36;;;;;;;0.25;0.20;;;;;;;14.66;89.52;100206.28;5051085;28;20045;-89
2021/06/21 03:50:11;;;;;;;0.10;0.10;;;;;;;14.76;89.29;100216.13;5059806;28;20045;-88
2021/06/21 03:52:41;;;;;;;0.32;0.20;;;;;;;14.72;89.36;100206.94;5050917;28;20052;-89
2021/06/21 03:55:15;;;;;;;0.10;0.10;;;;;;;14.71;89.25;100214.34;5059659;28;20546;-88
2021/06/21 03:57:51;;;;;;;0.10;0.10;;;;;;;14.68;89.34;100228.69;5046458;28;20486;-88
2021/06/21 04:00:22;;;;;;;0.10;0.10;;;;;;;14.62;90.28;100230.78;5058648;28;20048;-87
2021/06/21 04:02:57;;;;;;;0.20;0.20;;;;;;;14.73;89.79;100239.47;5048417;28;20044;-89
2021/06/21 04:05:26;;;;;;;0.20;0.20;;;;;;;14.71;90.31;100225.31;5054624;28;20049;-89
2021/06/21 04:08:04;;;;;;;0.20;0.20;;;;;;;14.68;89.69;100195.00;5075451;28;21455;-90
2021/06/21 04:10:35;;;;;;;0.22;0.22;;;;;;;14.59;90.04;100186.75;5059481;28;20484;-88
2021/06/21 04:13:04;;;;;;;0.10;0.10;;;;;;;14.52;90.10;100186.41;5056323;28;20041;-88
2021/06/21 04:15:33;;;;;;;0.20;0.20;;;;;;;14.45;91.31;100175.94;5051698;28;20061;-91
2021/06/21 04:18:09;;;;;;;0.10;0.10;;;;;;;14.51;90.69;100210.22;5058573;28;20398;-90
2021/06/21 04:20:43;;;;;;;0.10;0.10;;;;;;;14.55;90.52;100208.47;5046563;28;20049;-89
2021/06/21 04:23:18;;;;;;;0.25;0.20;;;;;;;14.46;91.05;100211.19;5045352;28;20473;-89
2021/06/21 04:25:53;;;;;;;0.22;0.20;;;;;;;14.44;91.01;100205.25;5039177;28;20060;-89
2021/06/21 04:28:29;;;;;;;0.13;0.13;;;;;;;14.50;91.51;100203.16;5055606;28;20068;-89
2021/06/21 04:30:58;;;;;;;0.10;0.10;;;;;;;14.45;91.37;100203.31;5042293;28;20063;-90
2021/06/21 04:33:32;;;;;;;0.30;0.20;;;;;;;14.49;91.59;100200.75;5039926;28;20060;-89
2021/06/21 04:36:07;;;;;;;0.20;0.20;;;;;;;14.44;92.01;100193.47;5039942;28;20064;-90
2021/06/21 04:38:41;;;;;;;0.10;0.10;;;;;;;14.42;91.47;100185.56;5042684;28;20041;-89
2021/06/21 04:41:16;;;;;;;0.20;0.20;;;;;;;14.38;92.24;100173.66;5043137;28;20064;-88
2021/06/21 04:43:48;;;;;;;0.10;0.10;;;;;;;14.32;91.95;100136.63;5050974;28;20523;-86
2021/06/21 04:46:23;;;;;;;0.10;0.10;;;;;;;14.38;92.16;100135.31;5056451;28;20053;-90
2021/06/21 04:48:57;;;;;;;0.10;0.10;;;;;;;14.29;91.79;100120.81;5046975;28;20401;-87
2021/06/21 04:51:32;;;;;;;0.10;0.10;;;;;;;14.37;92.43;100141.13;5042156;28;20053;-90
2021/06/21 04:54:07;;;;;;;0.10;0.10;;;;;;;14.42;92.68;100139.03;5049412;28;20057;-88
2021/06/21 04:56:41;;;;;;;0.10;0.10;;;;;;;14.38;92.44;100124.38;5040038;28;20052;-90
2021/06/21 04:59:11;;;;;;;0.10;0.10;;;;;;;14.43;92.43;100132.44;5053723;28;20401;-89
2021/06/21 05:01:46;;;;;;;0.32;0.20;;;;;;;14.35;92.45;100130.50;5051626;28;20057;-89
2021/06/21 05:04:19;;;;;;;0.10;0.10;;;;;;;14.44;91.90;100135.97;5052073;28;20040;-89
2021/06/21 05:06:48;;;;;;;0.20;0.20;;;;;;;14.37;92.43;100120.00;5042636;28;20041;-90
2021/06/21 05:09:19;;;;;;;0.10;0.10;;;;;;;14.44;92.42;100120.38;5048518;28;20052;-89
2021/06/21 05:11:56;;;;;;;0.10;0.10;;;;;;;14.46;91.99;100114.56;5039926;28;20052;-88
2021/06/21 05:14:30;;;;;;;0.10;0.10;;;;;;;14.54;91.94;100124.72;5044465;28;20060;-88
2021/06/21 05:17:03;;;;;;;0.10;0.10;;;;;;;14.48;91.80;100106.84;5039316;28;20049;-91
2021/06/21 05:19:31;;;;;;;0.10;0.10;;;;;;;14.44;91.64;100078.47;5047355;28;20067;-88
2021/06/21 05:22:06;;;;;;;0.10;0.10;;;;;;;14.51;91.49;100054.16;5039055;28;20048;-89
2021/06/21 05:24:41;;;;;;;0.10;0.10;;;;;;;14.43;91.29;100035.81;5048448;28;20049;-88
2021/06/21 05:27:09;;;;;;;0.10;0.10;;;;;;;14.44;91.53;100026.47;5046263;28;20049;-89
2021/06/21 05:29:43;;;;;;;0.10;0.10;;;;;;;14.45;92.18;100036.31;5044977;28;20049;-89
2021/06/21 05:32:15;;;;;;;0.10;0.10;;;;;;;14.44;91.34;100049.19;5054295;28;20049;-91
2021/06/21 05:34:48;;;;;;;0.10;0.10;;;;;;;14.22;91.44;100011.00;5044943;28;20041;-88
2021/06/21 05:37:19;;;;;;;0.20;0.20;;;;;;;14.49;91.63;100048.22;5041815;28;20072;-89
2021/06/21 05:40:49;;;;;;;0.20;0.20;;;;;;;14.48;91.27;100052.06;5061093;28;20516;-88
2021/06/21 05:43:51;;;;;;;0.10;0.10;;;;;;;14.44;91.52;100042.91;5045800;28;20053;-89
2021/06/21 05:46:41;;;;;;;0.10;0.10;;;;;;;14.38;91.79;100033.25;5039699;28;20053;-89
2021/06/21 05:49:13;;;;;;;0.10;0.10;;;;;;;14.51;92.09;100054.16;5049107;28;20033;-86
2021/06/21 05:51:54;;;;;;;0.10;0.10;;;;;;;14.49;91.96;100050.16;5043601;28;20053;-90
2021/06/21 05:54:27;;;;;;;0.20;0.20;;;;;;;14.54;91.16;100042.59;5080572;28;20063;-88
2021/06/21 05:57:00;;;;;;;0.10;0.10;;;;;;;14.67;91.86;100034.56;5056787;28;20037;-89
2021/06/21 05:59:30;;;;;;;0.10;0.10;;;;;;;14.46;91.39;100002.31;5075215;28;20052;-89
2021/06/21 06:02:03;;;;;;;0.10;0.10;;;;;;;14.56;90.71;99995.72;5048546;28;20049;-89
2021/06/21 06:04:32;;;;;;;0.20;0.20;;;;;;;14.80;91.33;100028.09;5050443;28;20405;-89
2021/06/21 06:07:06;;;;;;;0.10;0.10;;;;;;;14.69;90.95;100022.13;5044609;28;20052;-87
2021/06/21 06:09:39;;;;;;;0.13;0.13;;;;;;;14.74;91.65;100011.03;5050252;28;20060;-89
2021/06/21 06:12:08;;;;;;;0.10;0.10;;;;;;;14.71;91.59;100039.06;5037288;28;20060;-88
2021/06/21 06:14:38;;;;;;;0.10;0.10;;;;;;;14.79;91.12;100037.47;5043600;28;20060;-90
2021/06/21 06:17:11;;;;;;;0.10;0.10;;;;;;;14.79;91.38;100053.91;5046322;28;20048;-89
2021/06/21 06:19:45;;;;;;;0.10;0.10;;;;;;;14.43;91.61;100009.25;5051124;28;20052;-88
2021/06/21 06:22:14;;;;;;;0.10;0.10;;;;;;;14.71;91.12;100036.31;5048365;28;20061;-88
2021/06/21 06:24:47;;;;;;;0.10;0.10;;;;;;;14.77;91.85;100032.28;5053111;28;20065;-88
2021/06/21 06:27:17;;;;;;;0.17;0.17;;;;;;;14.73;92.08;100020.34;5081879;28;20049;-88
2021/06/21 06:29:54;;;;;;;0.13;0.13;;;;;;;14.84;91.16;100025.53;5038324;28;20056;-89
2021/06/21 06:32:28;;;;;;;0.10;0.10;;;;;;;14.87;90.95;100025.66;5050048;28;20051;-89
2021/06/21 06:35:05;;;;;;;0.10;0.10;;;;;;;15.06;91.42;100032.72;5076961;28;20050;-84
2021/06/21 06:37:35;;;;;;;0.20;0.20;;;;;;;15.07;90.21;100018.69;5055831;28;20057;-91
2021/06/21 06:40:09;;;;;;;0.10;0.10;;;;;;;15.13;90.89;100019.31;5074119;28;20046;-88
2021/06/21 06:43:04;;;;;;;0.10;0.10;;;;;;;15.22;90.24;100033.81;5057844;28;20061;-88
2021/06/21 06:45:34;;;;;;;0.10;0.10;;;;;;;15.27;90.30;100025.44;5081996;28;20052;-90
2021/06/21 06:48:02;;;;;;;0.10;0.10;;;;;;;15.25;91.26;100018.66;5079670;28;20048;-86
2021/06/21 06:50:36;;;;;;;0.10;0.10;;;;;;;15.30;90.86;100012.97;5037856;28;20041;-89
2021/06/21 06:53:05;;;;;;;0.10;0.10;;;;;;;15.28;90.51;100024.28;5046112;28;20055;-87
2021/06/21 06:58:29;;;;;;;0.20;0.20;;;;;;;15.22;90.71;100031.06;5057992;28;20394;-85
2021/06/21 07:01:05;;;;;;;0.10;0.10;;;;;;;15.27;90.52;100017.19;5046406;28;20056;-88
2021/06/21 07:03:40;;;;;;;0.10;0.10;;;;;;;15.19;91.13;100018.03;5038422;28;20049;-86
2021/06/21 07:06:13;;;;;;;0.13;0.13;;;;;;;15.18;91.60;100021.06;5056414;28;20060;-87
2021/06/21 07:08:49;;;;;;;0.20;0.20;;;;;;;15.24;91.24;100023.31;5041448;28;20496;-85
2021/06/21 07:11:52;;;;;;;0.20;0.20;;;;;;;15.13;91.26;100019.31;5035209;28;20730;-88
2021/06/21 07:14:29;;;;;;;0.20;0.20;;;;;;;15.13;91.65;100017.41;5040729;28;20053;-88
2021/06/21 07:17:01;;;;;;;0.10;0.10;;;;;;;15.13;91.24;100017.41;5041819;28;20048;-89
2021/06/21 07:19:35;;;;;;;0.20;0.20;;;;;;;15.16;91.20;100015.13;5040279;28;20060;-89
2021/06/21 07:22:05;;;;;;;0.10;0.10;;;;;;;15.19;90.79;100011.72;5032930;28;20052;-88
2021/06/21 07:24:40;;;;;;;0.13;0.13;;;;;;;15.19;90.82;100019.94;5034752;28;20056;-89
2021/06/21 07:27:09;;;;;;;0.20;0.20;;;;;;;15.16;91.13;100013.19;5039270;28;20049;-87
2021/06/21 07:29:43;;;;;;;0.10;0.10;;;;;;;15.20;91.33;100021.56;5038150;28;20049;-92
2021/06/21 07:32:19;;;;;;;0.10;0.10;;;;;;;15.21;90.66;100021.25;5028880;28;20065;-90
2021/06/21 07:34:57;;;;;;;0.20;0.20;;;;;;;15.30;91.05;100013.78;5034288;28;20048;-90
2021/06/21 07:37:25;;;;;;;0.10;0.10;;;;;;;15.29;91.51;100020.41;5026925;28;20071;-89
2021/06/21 07:39:58;;;;;;;0.20;0.20;;;;;;;15.35;91.29;100012.81;5033815;28;20041;-85
2021/06/21 07:42:57;;;;;;;0.10;0.10;;;;;;;15.37;90.66;100013.28;5033534;28;20064;-87
2021/06/21 07:45:31;;;;;;;0.17;0.17;;;;;;;15.37;92.02;100018.78;5029038;28;20537;-88
2021/06/21 07:48:07;;;;;;;0.20;0.20;;;;;;;15.40;91.67;100020.06;5031028;28;21546;-87
2021/06/21 07:50:42;;;;;;;0.10;0.10;;;;;;;15.39;91.97;100019.25;5037497;28;20041;-87
2021/06/21 07:53:16;;;;;;;0.10;0.10;;;;;;;15.45;91.23;100025.34;5064694;28;20045;-89
2021/06/21 07:55:50;;;;;;;0.20;0.20;;;;;;;15.50;91.45;100027.13;5030050;28;20835;-88
2021/06/21 07:58:24;;;;;;;0.10;0.10;;;;;;;15.52;91.21;100016.59;5036660;28;20064;-88
2021/06/21 08:01:00;;;;;;;0.10;0.10;;;;;;;15.51;91.85;100012.25;5035340;28;20053;-86
2021/06/21 08:03:30;;;;;;;0.20;0.20;;;;;;;15.50;91.86;100030.66;5026974;28;20064;-87
2021/06/21 08:06:06;;;;;;;0.20;0.20;;;;;;;15.50;91.51;100032.59;5025436;28;20056;-88
2021/06/21 08:08:43;;;;;;;0.13;0.13;;;;;;;15.46;91.44;100013.25;5028772;28;20048;-87
2021/06/21 08:11:16;;;;;;;0.15;0.15;;;;;;;15.59;91.14;100022.38;5025116;28;20453;-87
2021/06/21 08:13:45;;;;;;;0.10;0.10;;;;;;;15.58;91.65;100029.81;5033878;28;20056;-88
2021/06/21 08:16:19;;;;;;;0.10;0.10;;;;;;;15.61;91.39;100029.16;5026233;28;20053;-86
2021/06/21 08:18:56;;;;;;;0.20;0.20;;;;;;;15.72;90.75;100020.56;5026151;28;20056;-85
2021/06/21 08:21:24;;;;;;;0.20;0.20;;;;;;;15.73;91.06;100020.22;5029031;28;20086;-85
2021/06/21 08:24:01;;;;;;;0.10;0.10;;;;;;;15.77;90.46;100031.31;5030418;28;20061;-90
2021/06/21 08:26:34;;;;;;;0.10;0.10;;;;;;;15.77;91.02;100023.91;5029062;28;20061;-88
2021/06/21 08:29:08;;;;;;;0.10;0.10;;;;;;;15.77;90.71;100010.19;5031282;28;20856;-85
2021/06/21 08:31:38;;;;;;;0.10;0.10;;;;;;;15.80;90.67;100030.72;5028748;28;20068;-87
2021/06/21 08:34:13;;;;;;;0.20;0.20;;;;;;;15.76;91.26;100046.19;5030743;28;20089;-91
2021/06/21 08:36:46;;;;;;;0.10;0.10;;;;;;;15.80;92.41;100047.19;5027199;28;20071;-88
2021/06/21 08:39:19;;;;;;;0.10;0.10;;;;;;;15.89;92.03;100031.44;5030473;28;20064;-91
2021/06/21 08:41:48;;;;;;;0.13;0.13;;;;;;;15.89;91.94;100027.91;5029681;28;20053;-87
2021/06/21 08:44:16;;;;;;;0.10;0.10;;;;;;;15.89;91.40;100019.69;5026428;28;20413;-88
2021/06/21 08:46:51;;;;;;;0.10;0.10;;;;;;;15.92;91.66;100019.84;5026983;28;20063;-89
2021/06/21 08:49:23;;;;;;;0.20;0.20;;;;;;;15.94;91.07;100016.75;5037570;28;20473;-87
2021/06/21 08:51:58;;;;;;;0.20;0.20;;;;;;;15.97;90.92;100027.84;5033056;28;20674;-85
2021/06/21 08:54:32;;;;;;;0.10;0.10;;;;;;;15.98;91.42;100032.22;5031018;28;20072;-86
2021/06/21 08:57:06;;;;;;;0.13;0.13;;;;;;;16.10;91.72;100030.69;5029583;28;20048;-89
2021/06/21 08:59:42;;;;;;;0.17;0.17;;;;;;;16.29;91.48;100024.75;5037407;28;20083;-85
2021/06/21 09:02:16;;;;;;;0.10;0.10;;;;;;;16.28;91.85;100014.88;5027224;28;20045;-86
2021/06/21 09:04:53;;;;;;;0.13;0.13;;;;;;;16.38;92.24;100010.94;5024010;28;20060;-89
2021/06/21 09:07:28;;;;;;;0.10;0.10;;;;;;;16.46;91.26;99999.91;5021575;28;20056;-87
2021/06/21 09:10:09;;;;;;;0.10;0.10;;;;;;;16.65;92.05;100004.09;5024359;28;20682;-86
2021/06/21 09:12:42;;;;;;;0.20;0.10;;;;;;;16.70;91.82;99998.38;5023258;28;20053;-88
2021/06/21 09:15:16;;;;;;;0.10;0.10;;;;;;;16.79;90.84;100001.03;5032068;28;20049;-89
2021/06/21 09:17:50;;;;;;;0.10;0.10;;;;;;;16.99;92.42;99994.72;5026207;28;21560;-88
2021/06/21 09:20:21;;;;;;;0.10;0.10;;;;;;;17.05;91.17;99983.50;5023250;28;20048;-88
2021/06/21 09:23:00;;;;;;;0.10;0.10;;;;;;;17.20;91.11;99988.34;5021493;28;20053;-88
2021/06/21 09:25:33;;;;;;;0.20;0.20;;;;;;;17.29;90.85;99986.31;5025274;28;20060;-88
2021/06/21 09:28:06;;;;;;;0.20;0.20;;;;;;;17.27;89.93;99990.53;5026819;28;20095;-87
2021/06/21 09:30:50;;;;;;;0.10;0.10;;;;;;;17.20;88.47;99982.84;5022260;28;20053;-89
2021/06/21 09:33:32;;;;;;;0.20;0.20;;;;;;;17.27;88.66;99982.28;5031126;28;20064;-83
2021/06/21 09:36:09;;;;;;;0.10;0.10;;;;;;;17.33;88.04;99983.66;5021495;28;20060;-87
2021/06/21 09:38:39;;;;;;;0.20;0.20;;;;;;;17.10;88.62;99975.06;5025461;28;20045;-86
2021/06/21 09:41:12;;;;;;;0.15;0.15;;;;;;;17.11;89.89;99984.88;5028398;28;20071;-88
2021/06/21 09:43:41;;;;;;;0.10;0.10;;;;;;;17.05;89.26;99980.75;5026152;28;20061;-84
2021/06/21 09:46:16;;;;;;;0.20;0.15;;;;;;;17.20;88.58;99977.34;5026416;28;20067;-86
2021/06/21 09:48:52;;;;;;;0.10;0.10;;;;;;;17.23;89.33;99981.38;5025492;28;20053;-88
2021/06/21 09:51:30;;;;;;;0.20;0.20;;;;;;;17.08;89.90;99985.56;5026093;28;20480;-87
2021/06/21 09:54:06;;;;;;;0.10;0.10;;;;;;;16.99;89.77;99988.44;5027507;28;20067;-88
2021/06/21 09:56:43;;;;;;;0.20;0.20;;;;;;;17.09;89.60;99976.19;5023922;28;20049;-87
2021/06/21 09:59:20;;;;;;;0.17;0.17;;;;;;;17.02;88.72;99974.00;5026786;28;20065;-84
2021/06/21 10:02:01;;;;;;;;;;;;;;;16.96;90.00;99991.88;5063446;28;20044;-87
2021/06/21 10:04:37;;;;;;;0.10;0.10;;;;;;;16.89;90.95;100008.91;4985188;28;19929;-85
2021/06/21 10:10:06;;;;;;;0.13;0.10;;;;;;;17.09;90.34;100011.94;5110834;27;20135;-86
2021/06/21 10:12:41;;;;;;;0.10;0.10;;;;;;;17.06;89.51;100005.16;5094784;27;20051;-86
2021/06/21 10:15:12;;;;;;;0.30;0.20;;;;;;;17.06;90.41;100004.38;5102475;27;20090;-87
2021/06/21 10:17:46;;;;;;;0.10;0.10;;;;;;;17.00;89.95;100021.06;5089774;28;20063;-87
2021/06/21 10:20:20;;;;;;;0.10;0.10;;;;;;;16.98;90.37;100019.78;5099744;27;20071;-87
2021/06/21 10:23:04;;;;;;;0.13;0.13;;;;;;;17.18;89.11;100018.13;5101835;28;20051;-88
2021/06/21 10:25:39;;;;;;;0.10;0.10;;;;;;;17.25;89.09;100021.13;5119263;27;21352;-84
2021/06/21 10:28:13;;;;;;;0.20;0.20;;;;;;;17.22;88.25;100027.31;5099374;28;20047;-87
2021/06/21 10:30:48;;;;;;;0.20;0.20;;;;;;;17.10;88.00;100027.28;5096817;28;20542;-86
2021/06/21 10:33:23;;;;;;;0.20;0.20;;;;;;;17.09;89.34;100026.47;5120456;27;20064;-84
2021/06/21 10:35:58;;;;;;;0.20;0.20;;;;;;;17.37;90.70;100028.56;5102786;28;20047;-89
2021/06/21 10:38:26;;;;;;;0.10;0.10;;;;;;;17.90;88.47;100025.16;5106714;28;20562;-86
2021/06/21 10:41:09;;;;;;;0.20;0.20;;;;;;;18.01;86.71;100013.38;5101882;28;20055;-85
2021/06/21 10:43:47;;;;;;;0.10;0.10;;;;;;;18.08;87.12;100031.25;5098680;27;20069;-87
2021/06/21 10:46:25;;;;;;;0.10;0.10;;;;;;;18.09;88.00;100011.63;5097956;28;20048;-88
2021/06/21 10:49:43;;;;;;;0.13;0.13;;;;;;;18.76;85.20;100015.91;5103852;28;20113;-89
2021/06/21 10:52:34;;;;;;;0.20;0.20;;;;;;;18.84;84.60;100010.22;5103549;28;20055;-85
2021/06/21 10:55:37;;;;;;;0.10;0.10;;;;;;;19.14;87.43;100011.81;5102981;27;20066;-88
2021/06/21 10:58:42;;;;;;;0.13;0.13;;;;;;;19.09;85.36;100025.88;5097790;27;20075;-87
2021/06/21 11:01:21;;;;;;;0.20;0.20;;;;;;;19.37;84.17;100023.84;5099417;28;20055;-86
2021/06/21 11:03:55;;;;;;;0.17;0.17;;;;;;;19.45;82.96;100022.06;5071798;27;20067;-86
2021/06/21 11:06:42;;;;;;;0.20;0.20;;;;;;;19.00;84.73;100028.78;5096849;28;20055;-87
2021/06/21 11:09:39;;;;;;;0.20;0.20;;;;;;;19.05;83.23;100025.78;5098252;28;20407;-87
2021/06/21 11:12:36;;;;;;;0.10;0.10;;;;;;;19.09;84.10;100023.91;5098236;28;20043;-86
2021/06/21 11:15:17;;;;;;;0.20;0.20;;;;;;;19.22;84.71;100029.34;5102993;28;20052;-89
2021/06/21 11:17:58;;;;;;;0.10;0.10;;;;;;;19.38;82.25;100022.69;5097362;28;20184;-86
2021/06/21 11:20:34;;;;;;;0.10;0.10;;;;;;;19.19;84.40;100025.34;5091090;28;20062;-83
2021/06/21 11:23:09;;;;;;;0.20;0.20;;;;;;;19.28;82.45;100028.75;5088248;28;20059;-88
2021/06/21 11:25:44;;;;;;;0.20;0.20;;;;;;;19.68;84.77;100027.75;5087758;28;20067;-87
2021/06/21 11:28:46;;;;;;;0.15;0.15;;;;;;;19.38;81.49;100022.69;5088709;28;20443;-84
2021/06/21 11:31:25;;;;;;;0.10;0.10;;;;;;;19.21;82.92;100031.31;5051352;28;20066;-82
2021/06/21 11:34:00;;;;;;;0.20;0.20;;;;;;;19.00;83.80;100034.28;5083532;28;20059;-86
2021/06/21 11:36:38;;;;;;;0.10;0.10;;;;;;;18.88;84.39;100035.16;5082271;28;20059;-86
2021/06/21 11:39:20;;;;;;;0.20;0.20;;;;;;;18.78;83.49;100039.22;5071921;28;20411;-88
2021/06/21 11:41:56;;;;;;;0.20;0.20;;;;;;;18.52;84.74;100043.19;5090880;28;20059;-90
2021/06/21 11:44:48;;;;;;;0.20;0.20;;;;;;;18.47;86.37;100040.69;5085085;28;20056;-88
2021/06/21 11:47:23;;;;;;;0.20;0.20;;;;;;;18.56;85.31;100048.00;5085113;28;20055;-89
2021/06/21 11:50:07;;;;;;;0.10;0.10;;;;;;;18.22;86.12;100053.72;5088525;28;20044;-85
2021/06/21 11:52:48;;;;;;;0.10;0.10;;;;;;;18.05;87.07;100054.78;5087154;28;20071;-90
2021/06/21 11:55:21;;;;;;;0.10;0.10;;;;;;;17.97;86.33;100056.50;5087311;28;20060;-87
2021/06/21 11:57:58;;;;;;;0.10;0.10;;;;;;;17.99;85.29;100056.16;5088828;28;20755;-87
2021/06/21 12:00:34;;;;;;;0.10;0.10;;;;;;;17.89;87.03;100051.09;5085746;27;20835;-89
2021/06/21 12:03:10;;;;;;;0.10;0.10;;;;;;;18.13;86.99;100050.28;5058383;28;20064;-87
2021/06/21 12:05:52;;;;;;;0.20;0.20;;;;;;;18.33;86.06;100038.31;5082324;28;20052;-87
2021/06/21 12:08:21;;;;;;;0.20;0.20;;;;;;;18.57;84.14;100030.31;5086696;27;20044;-89
2021/06/21 12:10:54;;;;;;;0.10;0.10;;;;;;;18.41;83.70;100025.56;5083279;28;20062;-90
2021/06/21 12:13:29;;;;;;;0.20;0.20;;;;;;;18.58;85.47;100038.25;5086367;28;20047;-85